sensor_id;sensor_type;location;lat;lon;timestamp;pressure;altitude;pressure_sealevel;temperature;humidity
56671;BME280;42545;50.054;8.306;2023-02-12T00:01:46;102080.47;;;4.24;100.00
56671;BME280;42545;50.054;8.306;2023-02-12T00:04:16;102075.25;;;4.24;100.00
56671;BME280;42545;50.054;8.306;2023-02-12T00:06:42;102084.91;;;4.26;100.00
56671;BME280;42545;50.054;8.306;2023-02-12T00:09:09;102087.53;;;4.26;100.00
56671;BME280;42545;50.054;8.306;2023-02-12T00:11:38;102085.81;;;4.26;100.00
56671;BME280;42545;50.054;8.306;2023-02-12T00:14:08;102076.25;;;4.27;100.00
56671;BME280;42545;50.054;8.306;2023-02-12T00:16:35;102081.38;;;4.25;100.00
56671;BME280;42545;50.054;8.306;2023-02-12T00:19:03;102088.31;;;4.24;100.00
56671;BME280;42545;50.054;8.306;2023-02-12T00:21:32;102088.19;;;4.23;100.00
56671;BME280;42545;50.054;8.306;2023-02-12T00:24:02;102084.69;;;4.22;100.00
56671;BME280;42545;50.054;8.306;2023-02-12T00:26:29;102084.56;;;4.21;100.00
56671;BME280;42545;50.054;8.306;2023-02-12T00:28:56;102089.91;;;4.22;100.00
56671;BME280;42545;50.054;8.306;2023-02-12T00:31:24;102086.28;;;4.20;100.00
56671;BME280;42545;50.054;8.306;2023-02-12T00:33:51;102082.84;;;4.21;100.00
56671;BME280;42545;50.054;8.306;2023-02-12T00:36:20;102075.56;;;4.17;100.00
56671;BME280;42545;50.054;8.306;2023-02-12T00:38:50;102079.44;;;4.22;100.00
56671;BME280;42545;50.054;8.306;2023-02-12T00:41:18;102082.84;;;4.21;100.00
56671;BME280;42545;50.054;8.306;2023-02-12T00:43:45;102075.81;;;4.20;100.00
56671;BME280;42545;50.054;8.306;2023-02-12T00:46:13;102077.53;;;4.20;100.00
56671;BME280;42545;50.054;8.306;2023-02-12T00:48:40;102067.84;;;4.19;100.00
56671;BME280;42545;50.054;8.306;2023-02-12T00:51:07;102074.09;;;4.21;100.00
56671;BME280;42545;50.054;8.306;2023-02-12T00:53:34;102076.06;;;4.23;100.00
56671;BME280;42545;50.054;8.306;2023-02-12T00:56:02;102076.06;;;4.23;100.00
56671;BME280;42545;50.054;8.306;2023-02-12T00:58:29;102065.25;;;4.19;100.00
56671;BME280;42545;50.054;8.306;2023-02-12T01:00:57;102073.31;;;4.22;100.00
56671;BME280;42545;50.054;8.306;2023-02-12T01:03:24;102080.16;;;4.20;100.00
56671;BME280;42545;50.054;8.306;2023-02-12T01:05:51;102079.34;;;4.21;100.00
56671;BME280;42545;50.054;8.306;2023-02-12T01:08:18;102077.28;;;4.17;100.00
56671;BME280;42545;50.054;8.306;2023-02-12T01:10:44;102082.63;;;4.18;100.00
56671;BME280;42545;50.054;8.306;2023-02-12T01:13:13;102081.63;;;4.16;100.00
56671;BME280;42545;50.054;8.306;2023-02-12T01:15:40;102089.34;;;4.15;100.00
56671;BME280;42545;50.054;8.306;2023-02-12T01:18:08;102077.06;;;4.14;100.00
56671;BME280;42545;50.054;8.306;2023-02-12T01:20:35;102082.06;;;4.11;100.00
56671;BME280;42545;50.054;8.306;2023-02-12T01:23:02;102081.25;;;4.12;100.00
56671;BME280;42545;50.054;8.306;2023-02-12T01:25:31;102073.31;;;4.10;100.00
56671;BME280;42545;50.054;8.306;2023-02-12T01:27:57;102073.31;;;4.10;100.00
56671;BME280;42545;50.054;8.306;2023-02-12T01:30:27;102075.91;;;4.10;100.00
56671;BME280;42545;50.054;8.306;2023-02-12T01:32:54;102079.47;;;4.11;100.00
56671;BME280;42545;50.054;8.306;2023-02-12T01:35:21;102075.91;;;4.10;100.00
56671;BME280;42545;50.054;8.306;2023-02-12T01:37:47;102082.28;;;4.14;100.00
56671;BME280;42545;50.054;8.306;2023-02-12T01:40:15;102077.75;;;4.11;100.00
56671;BME280;42545;50.054;8.306;2023-02-12T01:42:43;102069.91;;;4.11;100.00
56671;BME280;42545;50.054;8.306;2023-02-12T01:48:13;102068.31;;;4.13;100.00
56671;BME280;42545;50.054;8.306;2023-02-12T01:50:43;102072.84;;;4.16;100.00
56671;BME280;42545;50.054;8.306;2023-02-12T01:53:11;102071.94;;;4.15;100.00
56671;BME280;42545;50.054;8.306;2023-02-12T01:55:45;102071.03;;;4.15;100.00
56671;BME280;42545;50.054;8.306;2023-02-12T01:58:13;102072.63;;;4.13;100.00
56671;BME280;42545;50.054;8.306;2023-02-12T02:00:40;102071.16;;;4.16;100.00
56671;BME280;42545;50.054;8.306;2023-02-12T02:03:06;102075.56;;;4.17;100.00
56671;BME280;42545;50.054;8.306;2023-02-12T02:05:41;102064.22;;;4.17;100.00
56671;BME280;42545;50.054;8.306;2023-02-12T02:08:09;102063.34;;;4.16;100.00
56671;BME280;42545;50.054;8.306;2023-02-12T02:10:37;102072.06;;;4.17;100.00
56671;BME280;42545;50.054;8.306;2023-02-12T02:13:04;102067.75;;;4.17;100.00
56671;BME280;42545;50.054;8.306;2023-02-12T02:15:50;102068.56;;;4.16;100.00
56671;BME280;42545;50.054;8.306;2023-02-12T02:18:23;102063.41;;;4.18;100.00
56671;BME280;42545;50.054;8.306;2023-02-12T02:21:18;102061.50;;;4.15;100.00
56671;BME280;42545;50.054;8.306;2023-02-12T02:24:05;102070.34;;;4.17;100.00
56671;BME280;42545;50.054;8.306;2023-02-12T02:26:58;102065.81;;;4.15;100.00
56671;BME280;42545;50.054;8.306;2023-02-12T02:29:42;102062.19;;;4.13;100.00
56671;BME280;42545;50.054;8.306;2023-02-12T02:32:17;102059.56;;;4.13;100.00
56671;BME280;42545;50.054;8.306;2023-02-12T02:34:52;102064.88;;;4.14;100.00
56671;BME280;42545;50.054;8.306;2023-02-12T02:37:26;102065.94;;;4.16;100.00
56671;BME280;42545;50.054;8.306;2023-02-12T02:39:59;102065.13;;;4.17;100.00
56671;BME280;42545;50.054;8.306;2023-02-12T02:42:33;102047.06;;;4.09;100.00
56671;BME280;42545;50.054;8.306;2023-02-12T02:45:06;102059.91;;;4.17;100.00
56671;BME280;42545;50.054;8.306;2023-02-12T02:47:40;102057.28;;;4.17;100.00
56671;BME280;42545;50.054;8.306;2023-02-12T02:50:19;102063.34;;;4.16;100.00
56671;BME280;42545;50.054;8.306;2023-02-12T02:52:50;102057.06;;;4.14;100.00
56671;BME280;42545;50.054;8.306;2023-02-12T02:55:24;102061.63;;;4.17;100.00
56671;BME280;42545;50.054;8.306;2023-02-12T02:57:56;102050.94;;;4.14;100.00
56671;BME280;42545;50.054;8.306;2023-02-12T03:00:27;102064.22;;;4.17;100.00
56671;BME280;42545;50.054;8.306;2023-02-12T03:03:01;102062.41;;;4.16;100.00
56671;BME280;42545;50.054;8.306;2023-02-12T03:05:36;102062.28;;;4.14;100.00
56671;BME280;42545;50.054;8.306;2023-02-12T03:08:07;102059.66;;;4.14;100.00
56671;BME280;42545;50.054;8.306;2023-02-12T03:10:41;102056.97;;;4.13;100.00
56671;BME280;42545;50.054;8.306;2023-02-12T03:13:13;102057.63;;;4.10;100.00
56671;BME280;42545;50.054;8.306;2023-02-12T03:15:48;102060.25;;;4.10;100.00
56671;BME280;42545;50.054;8.306;2023-02-12T03:18:21;102056.59;;;4.08;100.00
56671;BME280;42545;50.054;8.306;2023-02-12T03:20:53;102057.41;;;4.07;100.00
56671;BME280;42545;50.054;8.306;2023-02-12T03:23:24;102057.31;;;4.06;100.00
56671;BME280;42545;50.054;8.306;2023-02-12T03:25:54;102057.19;;;4.04;100.00
56671;BME280;42545;50.054;8.306;2023-02-12T03:28:26;102057.06;;;4.02;100.00
56671;BME280;42545;50.054;8.306;2023-02-12T03:30:59;102056.81;;;3.99;100.00
56671;BME280;42545;50.054;8.306;2023-02-12T03:33:36;102061.16;;;3.99;100.00
56671;BME280;42545;50.054;8.306;2023-02-12T03:36:14;102070.81;;;4.00;100.00
56671;BME280;42545;50.054;8.306;2023-02-12T03:38:48;102064.66;;;3.99;100.00
56671;BME280;42545;50.054;8.306;2023-02-12T03:41:21;102062.97;;;4.00;100.00
56671;BME280;42545;50.054;8.306;2023-02-12T03:43:53;102054.44;;;4.02;100.00
56671;BME280;42545;50.054;8.306;2023-02-12T03:46:27;102055.72;;;4.08;100.00
56671;BME280;42545;50.054;8.306;2023-02-12T03:49:04;102062.66;;;4.07;100.00
56671;BME280;42545;50.054;8.306;2023-02-12T03:51:34;102055.47;;;4.04;100.00
56671;BME280;42545;50.054;8.306;2023-02-12T03:54:04;102063.53;;;4.08;100.00
56671;BME280;42545;50.054;8.306;2023-02-12T03:56:35;102059.91;;;4.06;100.00
56671;BME280;42545;50.054;8.306;2023-02-12T03:59:04;102058.19;;;4.06;100.00
56671;BME280;42545;50.054;8.306;2023-02-12T04:01:32;102069.53;;;4.07;100.00
56671;BME280;42545;50.054;8.306;2023-02-12T04:04:04;102067.88;;;4.07;100.00
56671;BME280;42545;50.054;8.306;2023-02-12T04:06:32;102066.03;;;4.06;100.00
56671;BME280;42545;50.054;8.306;2023-02-12T04:09:02;102075.78;;;4.09;100.00
56671;BME280;42545;50.054;8.306;2023-02-12T04:11:35;102074.78;;;4.07;100.00
56671;BME280;42545;50.054;8.306;2023-02-12T04:14:14;102072.28;;;4.08;100.00
56671;BME280;42545;50.054;8.306;2023-02-12T04:16:47;102085.59;;;4.11;100.00
56671;BME280;42545;50.054;8.306;2023-02-12T04:19:25;102080.00;;;4.07;100.00
56671;BME280;42545;50.054;8.306;2023-02-12T04:22:10;102091.72;;;4.12;100.00
56671;BME280;42545;50.054;8.306;2023-02-12T04:24:44;102086.72;;;4.15;100.00
56671;BME280;42545;50.054;8.306;2023-02-12T04:27:19;102087.63;;;4.15;100.00
56671;BME280;42545;50.054;8.306;2023-02-12T04:29:52;102095.47;;;4.15;100.00
56671;BME280;42545;50.054;8.306;2023-02-12T04:32:25;102096.94;;;4.12;100.00
56671;BME280;42545;50.054;8.306;2023-02-12T04:35:00;102104.06;;;4.14;100.00
56671;BME280;42545;50.054;8.306;2023-02-12T04:37:32;102100.44;;;4.12;100.00
56671;BME280;42545;50.054;8.306;2023-02-12T04:40:02;102104.00;;;4.13;100.00
56671;BME280;42545;50.054;8.306;2023-02-12T04:42:40;102093.53;;;4.13;100.00
56671;BME280;42545;50.054;8.306;2023-02-12T04:45:08;102103.19;;;4.14;100.00
56671;BME280;42545;50.054;8.306;2023-02-12T04:47:36;102106.69;;;4.14;100.00
56671;BME280;42545;50.054;8.306;2023-02-12T04:50:06;102111.91;;;4.14;100.00
56671;BME280;42545;50.054;8.306;2023-02-12T04:52:32;102105.91;;;4.15;100.00
56671;BME280;42545;50.054;8.306;2023-02-12T04:54:59;102111.00;;;4.14;100.00
56671;BME280;42545;50.054;8.306;2023-02-12T04:57:26;102112.72;;;4.13;100.00
56671;BME280;42545;50.054;8.306;2023-02-12T04:59:53;102115.34;;;4.13;100.00
56671;BME280;42545;50.054;8.306;2023-02-12T05:02:19;102112.59;;;4.12;100.00
56671;BME280;42545;50.054;8.306;2023-02-12T05:04:48;102105.66;;;4.12;100.00
56671;BME280;42545;50.054;8.306;2023-02-12T05:07:16;102098.66;;;4.11;100.00
56671;BME280;42545;50.054;8.306;2023-02-12T05:09:43;102108.28;;;4.12;100.00
56671;BME280;42545;50.054;8.306;2023-02-12T05:12:09;102100.34;;;4.11;100.00
56671;BME280;42545;50.054;8.306;2023-02-12T05:14:37;102100.34;;;4.11;100.00
56671;BME280;42545;50.054;8.306;2023-02-12T05:17:04;102096.50;;;4.06;100.00
56671;BME280;42545;50.054;8.306;2023-02-12T05:19:31;102101.59;;;4.04;100.00
56671;BME280;42545;50.054;8.306;2023-02-12T05:21:58;102098.84;;;4.02;100.00
56671;BME280;42545;50.054;8.306;2023-02-12T05:24:26;102101.47;;;4.02;100.00
56671;BME280;42545;50.054;8.306;2023-02-12T05:26:53;102099.63;;;4.01;100.00
56671;BME280;42545;50.054;8.306;2023-02-12T05:29:20;102113.63;;;4.02;100.00
56671;BME280;42545;50.054;8.306;2023-02-12T05:31:46;102106.44;;;3.99;100.00
56671;BME280;42545;50.054;8.306;2023-02-12T05:34:13;102100.09;;;3.96;100.00
56671;BME280;42545;50.054;8.306;2023-02-12T05:36:40;102100.19;;;3.97;100.00
56671;BME280;42545;50.054;8.306;2023-02-12T05:39:07;102101.91;;;3.97;100.00
56671;BME280;42545;50.054;8.306;2023-02-12T05:41:35;102097.47;;;3.96;100.00
56671;BME280;42545;50.054;8.306;2023-02-12T05:44:02;102096.56;;;3.95;100.00
56671;BME280;42545;50.054;8.306;2023-02-12T05:46:30;102103.38;;;3.93;100.00
56671;BME280;42545;50.054;8.306;2023-02-12T05:48:59;102106.78;;;3.92;100.00
56671;BME280;42545;50.054;8.306;2023-02-12T05:51:26;102098.16;;;3.93;100.00
56671;BME280;42545;50.054;8.306;2023-02-12T05:53:57;102109.88;;;3.98;100.00
56671;BME280;42545;50.054;8.306;2023-02-12T05:56:26;102087.84;;;3.95;100.00
56671;BME280;42545;50.054;8.306;2023-02-12T05:58:55;102099.63;;;4.01;100.00
56671;BME280;42545;50.054;8.306;2023-02-12T06:01:29;102109.19;;;4.01;100.00
56671;BME280;42545;50.054;8.306;2023-02-12T06:03:58;102101.22;;;3.99;100.00
56671;BME280;42545;50.054;8.306;2023-02-12T06:06:25;102110.78;;;3.99;100.00
56671;BME280;42545;50.054;8.306;2023-02-12T06:08:52;102108.28;;;4.00;100.00
56671;BME280;42545;50.054;8.306;2023-02-12T06:11:18;102111.78;;;4.01;100.00
56671;BME280;42545;50.054;8.306;2023-02-12T06:13:46;102108.53;;;4.03;100.00
56671;BME280;42545;50.054;8.306;2023-02-12T06:16:18;102103.19;;;4.02;100.00
56671;BME280;42545;50.054;8.306;2023-02-12T06:18:46;102105.56;;;3.99;100.00
56671;BME280;42545;50.054;8.306;2023-02-12T06:21:13;102117.84;;;4.00;100.00
56671;BME280;42545;50.054;8.306;2023-02-12T06:23:40;102112.81;;;4.03;100.00
56671;BME280;42545;50.054;8.306;2023-02-12T06:26:07;102110.44;;;4.06;100.00
56671;BME280;42545;50.054;8.306;2023-02-12T06:28:34;102117.72;;;4.10;100.00
56671;BME280;42545;50.054;8.306;2023-02-12T06:31:01;102117.97;;;4.13;100.00
56671;BME280;42545;50.054;8.306;2023-02-12T06:33:29;102126.69;;;4.14;100.00
56671;BME280;42545;50.054;8.306;2023-02-12T06:35:56;102129.44;;;4.15;100.00
56671;BME280;42545;50.054;8.306;2023-02-12T06:38:23;102126.81;;;4.15;100.00
56671;BME280;42545;50.054;8.306;2023-02-12T06:40:49;102129.44;;;4.15;100.00
56671;BME280;42545;50.054;8.306;2023-02-12T06:43:16;102130.22;;;4.14;100.00
56671;BME280;42545;50.054;8.306;2023-02-12T06:45:43;102137.16;;;4.14;100.00
56671;BME280;42545;50.054;8.306;2023-02-12T06:48:09;102143.28;;;4.14;100.00
56671;BME280;42545;50.054;8.306;2023-02-12T06:50:37;102133.75;;;4.15;100.00
56671;BME280;42545;50.054;8.306;2023-02-12T06:53:04;102133.75;;;4.15;100.00
56671;BME280;42545;50.054;8.306;2023-02-12T06:55:33;102132.94;;;4.16;100.00
56671;BME280;42545;50.054;8.306;2023-02-12T06:58:00;102134.78;;;4.17;100.00
56671;BME280;42545;50.054;8.306;2023-02-12T07:00:26;102140.13;;;4.18;100.00
56671;BME280;42545;50.054;8.306;2023-02-12T07:02:54;102142.94;;;4.21;100.00
56671;BME280;42545;50.054;8.306;2023-02-12T07:05:21;102137.63;;;4.20;100.00
56671;BME280;42545;50.054;8.306;2023-02-12T07:07:49;102141.38;;;4.23;100.00
56671;BME280;42545;50.054;8.306;2023-02-12T07:10:16;102140.56;;;4.24;100.00
56671;BME280;42545;50.054;8.306;2023-02-12T07:12:43;102150.38;;;4.27;100.00
56671;BME280;42545;50.054;8.306;2023-02-12T07:15:10;102147.97;;;4.30;100.00
56671;BME280;42545;50.054;8.306;2023-02-12T07:17:38;102148.97;;;4.32;100.00
56671;BME280;42545;50.054;8.306;2023-02-12T07:20:06;102142.84;;;4.32;100.00
56671;BME280;42545;50.054;8.306;2023-02-12T07:22:35;102148.44;;;4.36;100.00
56671;BME280;42545;50.054;8.306;2023-02-12T07:25:03;102150.38;;;4.39;100.00
56671;BME280;42545;50.054;8.306;2023-02-12T07:27:30;102146.16;;;4.41;100.00
56671;BME280;42545;50.054;8.306;2023-02-12T07:29:56;102153.41;;;4.45;100.00
56671;BME280;42545;50.054;8.306;2023-02-12T07:32:23;102150.25;;;4.49;100.00
56671;BME280;42545;50.054;8.306;2023-02-12T07:34:50;102158.31;;;4.52;100.00
56671;BME280;42545;50.054;8.306;2023-02-12T07:37:17;102154.34;;;4.57;100.00
56671;BME280;42545;50.054;8.306;2023-02-12T07:39:46;102150.13;;;4.59;100.00
56671;BME280;42545;50.054;8.306;2023-02-12T07:42:17;102148.88;;;4.66;100.00
56671;BME280;42545;50.054;8.306;2023-02-12T07:44:44;102149.22;;;4.71;100.00
56671;BME280;42545;50.054;8.306;2023-02-12T07:47:10;102164.34;;;4.75;100.00
56671;BME280;42545;50.054;8.306;2023-02-12T07:49:37;102161.41;;;4.82;100.00
56671;BME280;42545;50.054;8.306;2023-02-12T07:52:04;102154.56;;;4.84;100.00
56671;BME280;42545;50.054;8.306;2023-02-12T07:54:30;102158.44;;;4.89;100.00
56671;BME280;42545;50.054;8.306;2023-02-12T07:56:57;102170.13;;;4.94;100.00
56671;BME280;42545;50.054;8.306;2023-02-12T07:59:26;102159.34;;;4.90;100.00
56671;BME280;42545;50.054;8.306;2023-02-12T08:01:53;102172.28;;;5.00;100.00
56671;BME280;42545;50.054;8.306;2023-02-12T08:04:23;102174.22;;;5.03;100.00
56671;BME280;42545;50.054;8.306;2023-02-12T08:06:52;102171.84;;;5.06;100.00
56671;BME280;42545;50.054;8.306;2023-02-12T08:09:21;102172.97;;;5.09;100.00
56671;BME280;42545;50.054;8.306;2023-02-12T08:11:49;102179.31;;;5.13;100.00
56671;BME280;42545;50.054;8.306;2023-02-12T08:14:16;102175.00;;;5.13;100.00
56671;BME280;42545;50.054;8.306;2023-02-12T08:16:46;102175.19;;;5.16;100.00
56671;BME280;42545;50.054;8.306;2023-02-12T08:19:13;102170.09;;;5.18;100.00
56671;BME280;42545;50.054;8.306;2023-02-12T08:21:40;102166.81;;;5.20;100.00
56671;BME280;42545;50.054;8.306;2023-02-12T08:24:09;102180.19;;;5.25;100.00
56671;BME280;42545;50.054;8.306;2023-02-12T08:26:37;102188.28;;;5.28;100.00
56671;BME280;42545;50.054;8.306;2023-02-12T08:29:06;102179.72;;;5.31;100.00
56671;BME280;42545;50.054;8.306;2023-02-12T08:31:34;102180.97;;;5.36;100.00
56671;BME280;42545;50.054;8.306;2023-02-12T08:34:04;102171.50;;;5.38;100.00
56671;BME280;42545;50.054;8.306;2023-02-12T08:36:36;102173.56;;;5.42;100.00
56671;BME280;42545;50.054;8.306;2023-02-12T08:39:03;102181.38;;;5.54;100.00
56671;BME280;42545;50.054;8.306;2023-02-12T08:41:30;102183.50;;;5.59;100.00
56671;BME280;42545;50.054;8.306;2023-02-12T08:43:58;102186.34;;;5.63;100.00
56671;BME280;42545;50.054;8.306;2023-02-12T08:46:27;102190.22;;;5.68;100.00
56671;BME280;42545;50.054;8.306;2023-02-12T08:48:55;102188.63;;;5.70;100.00
56671;BME280;42545;50.054;8.306;2023-02-12T08:51:26;102186.88;;;5.70;100.00
56671;BME280;42545;50.054;8.306;2023-02-12T08:53:54;102188.31;;;5.78;100.00
56671;BME280;42545;50.054;8.306;2023-02-12T08:56:23;102197.41;;;5.84;100.00
56671;BME280;42545;50.054;8.306;2023-02-12T08:58:52;102197.66;;;5.87;100.00
56671;BME280;42545;50.054;8.306;2023-02-12T09:01:21;102190.13;;;5.91;100.00
56671;BME280;42545;50.054;8.306;2023-02-12T09:03:49;102194.66;;;5.94;100.00
56671;BME280;42545;50.054;8.306;2023-02-12T09:06:17;102192.28;;;5.97;100.00
56671;BME280;42545;50.054;8.306;2023-02-12T09:08:45;102197.94;;;6.03;100.00
56671;BME280;42545;50.054;8.306;2023-02-12T09:11:14;102188.47;;;6.05;100.00
56671;BME280;42545;50.054;8.306;2023-02-12T09:13:42;102195.16;;;6.13;100.00
56671;BME280;42545;50.054;8.306;2023-02-12T09:16:09;102192.94;;;6.20;100.00
56671;BME280;42545;50.054;8.306;2023-02-12T09:18:36;102194.97;;;6.24;100.00
56671;BME280;42545;50.054;8.306;2023-02-12T09:21:06;102195.47;;;6.31;100.00
56671;BME280;42545;50.054;8.306;2023-02-12T09:23:34;102196.72;;;6.37;100.00
56671;BME280;42545;50.054;8.306;2023-02-12T09:26:05;102201.28;;;6.39;100.00
56671;BME280;42545;50.054;8.306;2023-02-12T09:28:32;102199.66;;;6.41;100.00
56671;BME280;42545;50.054;8.306;2023-02-12T09:31:03;102199.06;;;6.45;100.00
56671;BME280;42545;50.054;8.306;2023-02-12T09:33:30;102206.19;;;6.48;100.00
56671;BME280;42545;50.054;8.306;2023-02-12T09:36:00;102202.69;;;6.47;100.00
56671;BME280;42545;50.054;8.306;2023-02-12T09:38:27;102203.78;;;6.51;100.00
56671;BME280;42545;50.054;8.306;2023-02-12T09:41:07;102205.63;;;6.52;100.00
56671;BME280;42545;50.054;8.306;2023-02-12T09:43:41;102207.53;;;6.54;100.00
56671;BME280;42545;50.054;8.306;2023-02-12T09:46:15;102214.00;;;6.60;100.00
56671;BME280;42545;50.054;8.306;2023-02-12T09:48:53;102205.41;;;6.62;100.00
56671;BME280;42545;50.054;8.306;2023-02-12T09:51:28;102199.59;;;6.66;100.00
56671;BME280;42545;50.054;8.306;2023-02-12T09:54:01;102210.38;;;6.71;100.00
56671;BME280;42545;50.054;8.306;2023-02-12T09:56:30;102198.78;;;6.67;100.00
56671;BME280;42545;50.054;8.306;2023-02-12T09:59:00;102198.78;;;6.67;100.00
56671;BME280;42545;50.054;8.306;2023-02-12T10:01:30;102197.25;;;6.71;100.00
56671;BME280;42545;50.054;8.306;2023-02-12T10:03:58;102200.78;;;6.71;100.00
56671;BME280;42545;50.054;8.306;2023-02-12T10:06:27;102202.50;;;6.71;100.00
56671;BME280;42545;50.054;8.306;2023-02-12T10:09:02;102198.78;;;6.67;100.00
56671;BME280;42545;50.054;8.306;2023-02-12T10:11:41;102202.28;;;6.68;100.00
56671;BME280;42545;50.054;8.306;2023-02-12T10:14:24;102201.28;;;6.66;100.00
56671;BME280;42545;50.054;8.306;2023-02-12T10:17:00;102208.25;;;6.65;100.00
56671;BME280;42545;50.054;8.306;2023-02-12T10:19:47;102202.28;;;6.68;100.00
56671;BME280;42545;50.054;8.306;2023-02-12T10:22:24;102216.22;;;6.67;100.00
56671;BME280;42545;50.054;8.306;2023-02-12T10:25:02;102192.19;;;6.61;100.00
56671;BME280;42545;50.054;8.306;2023-02-12T10:27:38;102207.66;;;6.69;100.00
56671;BME280;42545;50.054;8.306;2023-02-12T10:30:16;102213.00;;;6.71;100.00
56671;BME280;42545;50.054;8.306;2023-02-12T10:32:45;102203.34;;;6.70;100.00
56671;BME280;42545;50.054;8.306;2023-02-12T10:35:15;102209.88;;;6.77;100.00
56671;BME280;42545;50.054;8.306;2023-02-12T10:37:45;102205.53;;;6.77;100.00
56671;BME280;42545;50.054;8.306;2023-02-12T10:40:17;102214.44;;;6.79;100.00
56671;BME280;42545;50.054;8.306;2023-02-12T10:42:48;102203.13;;;6.80;100.00
56671;BME280;42545;50.054;8.306;2023-02-12T10:45:18;102210.31;;;6.83;100.00
56671;BME280;42545;50.054;8.306;2023-02-12T10:47:46;102204.22;;;6.84;100.00
56671;BME280;42545;50.054;8.306;2023-02-12T10:50:23;102205.22;;;6.86;100.00
56671;BME280;42545;50.054;8.306;2023-02-12T10:52:56;102198.47;;;6.89;100.00
56671;BME280;42545;50.054;8.306;2023-02-12T10:55:29;102195.84;;;6.89;100.00
56671;BME280;42545;50.054;8.306;2023-02-12T10:57:59;102181.31;;;6.81;100.00
56671;BME280;42545;50.054;8.306;2023-02-12T11:00:28;102201.31;;;6.92;100.00
56671;BME280;42545;50.054;8.306;2023-02-12T11:03:03;102184.44;;;6.89;100.00
56671;BME280;42545;50.054;8.306;2023-02-12T11:05:33;102189.50;;;6.99;100.00
56671;BME280;42545;50.054;8.306;2023-02-12T11:08:00;102177.16;;;6.98;100.00
56671;BME280;42545;50.054;8.306;2023-02-12T11:10:28;102169.19;;;6.97;100.00
56671;BME280;42545;50.054;8.306;2023-02-12T11:13:00;102173.81;;;7.01;100.00
56671;BME280;42545;50.054;8.306;2023-02-12T11:15:31;102176.97;;;7.08;100.00
56671;BME280;42545;50.054;8.306;2023-02-12T11:18:02;102178.16;;;7.13;100.00
56671;BME280;42545;50.054;8.306;2023-02-12T11:20:36;102175.63;;;7.15;100.00
56671;BME280;42545;50.054;8.306;2023-02-12T11:23:08;102179.34;;;7.19;100.00
56671;BME280;42545;50.054;8.306;2023-02-12T11:25:55;102172.47;;;7.21;100.00
56671;BME280;42545;50.054;8.306;2023-02-12T11:28:24;102164.91;;;7.25;100.00
56671;BME280;42545;50.054;8.306;2023-02-12T11:30:54;102165.72;;;7.24;100.00
56671;BME280;42545;50.054;8.306;2023-02-12T11:33:25;102166.81;;;7.28;100.00
56671;BME280;42545;50.054;8.306;2023-02-12T11:35:54;102151.16;;;7.29;100.00
56671;BME280;42545;50.054;8.306;2023-02-12T11:38:25;102153.47;;;7.38;100.00
56671;BME280;42545;50.054;8.306;2023-02-12T11:40:55;102146.97;;;7.46;100.00
56671;BME280;42545;50.054;8.306;2023-02-12T11:43:25;102147.88;;;7.47;100.00
56671;BME280;42545;50.054;8.306;2023-02-12T11:45:55;102152.22;;;7.46;100.00
56671;BME280;42545;50.054;8.306;2023-02-12T11:48:26;102145.16;;;7.45;100.00
56671;BME280;42545;50.054;8.306;2023-02-12T11:50:57;102139.75;;;7.57;100.00
56671;BME280;42545;50.054;8.306;2023-02-12T11:53:28;102140.94;;;7.62;100.00
56671;BME280;42545;50.054;8.306;2023-02-12T11:55:57;102137.78;;;7.68;100.00
56671;BME280;42545;50.054;8.306;2023-02-12T11:58:27;102136.56;;;7.76;100.00
56671;BME280;42545;50.054;8.306;2023-02-12T12:01:02;102138.66;;;7.82;100.00
56671;BME280;42545;50.054;8.306;2023-02-12T12:03:33;102135.47;;;7.87;100.00
56671;BME280;42545;50.054;8.306;2023-02-12T12:06:06;102124.44;;;7.93;100.00
56671;BME280;42545;50.054;8.306;2023-02-12T12:08:38;102118.63;;;7.99;100.00
56671;BME280;42545;50.054;8.306;2023-02-12T12:11:09;102121.44;;;8.02;100.00
56671;BME280;42545;50.054;8.306;2023-02-12T12:13:43;102116.38;;;8.05;100.00
56671;BME280;42545;50.054;8.306;2023-02-12T12:16:18;102118.53;;;8.12;100.00
56671;BME280;42545;50.054;8.306;2023-02-12T12:19:10;102118.03;;;8.18;100.00
56671;BME280;42545;50.054;8.306;2023-02-12T12:22:02;102113.66;;;8.18;100.00
56671;BME280;42545;50.054;8.306;2023-02-12T12:24:36;102110.38;;;8.22;100.00
56671;BME280;42545;50.054;8.306;2023-02-12T12:27:13;102105.75;;;8.33;100.00
56671;BME280;42545;50.054;8.306;2023-02-12T12:30:10;102107.09;;;8.41;99.73
56671;BME280;42545;50.054;8.306;2023-02-12T12:32:44;102103.03;;;8.46;100.00
56671;BME280;42545;50.054;8.306;2023-02-12T12:35:17;102100.03;;;8.55;100.00
56671;BME280;42545;50.054;8.306;2023-02-12T12:37:47;102098.69;;;8.62;99.79
56671;BME280;42545;50.054;8.306;2023-02-12T12:40:28;102095.41;;;8.66;98.60
56671;BME280;42545;50.054;8.306;2023-02-12T12:43:12;102097.22;;;8.67;98.13
56671;BME280;42545;50.054;8.306;2023-02-12T12:45:58;102081.91;;;8.60;97.85
56671;BME280;42545;50.054;8.306;2023-02-12T12:48:37;102099.19;;;8.71;97.64
56671;BME280;42545;50.054;8.306;2023-02-12T12:51:21;102082.75;;;8.75;97.88
56671;BME280;42545;50.054;8.306;2023-02-12T12:54:01;102084.91;;;8.82;97.98
56671;BME280;42545;50.054;8.306;2023-02-12T12:56:46;102083.34;;;8.86;96.98
56671;BME280;42545;50.054;8.306;2023-02-12T12:59:46;102087.25;;;8.93;96.76
56671;BME280;42545;50.054;8.306;2023-02-12T13:02:51;102077.78;;;8.96;96.68
56671;BME280;42545;50.054;8.306;2023-02-12T13:05:42;102083.06;;;8.96;96.19
56671;BME280;42545;50.054;8.306;2023-02-12T13:08:19;102078.50;;;8.94;95.92
56671;BME280;42545;50.054;8.306;2023-02-12T13:10:55;102078.34;;;8.91;95.08
56671;BME280;42545;50.054;8.306;2023-02-12T13:13:28;102069.22;;;8.84;95.27